Time;durP1;ratioP1;P1;durP2;ratioP2;P2;SDS_P1;SDS_P2;PMS_P1;PMS_P2;Temp;Humidity;BMP_temperature;BMP_pressure;BME280_temperature;BME280_humidity;BME280_pressure;Samples;Min_cycle;Max_cycle;Signal;HPM_P1;HPM_P2
2023/11/03 00:01:51;;;;;;;4.20;2.47;;;20.90;56.80;;;;;;5042911;28;20099;-64
2023/11/03 00:04:16;;;;;;;4.72;2.38;;;20.90;56.80;;;;;;5040815;28;20025;-65
2023/11/03 00:06:45;;;;;;;3.72;2.47;;;20.90;56.80;;;;;;5039675;28;20481;-64
2023/11/03 00:09:15;;;;;;;5.05;2.47;;;20.90;56.80;;;;;;5038292;28;20196;-64
2023/11/03 00:11:49;;;;;;;3.60;2.50;;;20.90;56.80;;;;;;5038975;28;20061;-65
2023/11/03 00:14:16;;;;;;;4.35;2.65;;;20.90;56.80;;;;;;5040285;28;20136;-64
2023/11/03 00:16:45;;;;;;;3.92;2.00;;;20.80;56.80;;;;;;5043116;28;20027;-64
2023/11/03 00:19:13;;;;;;;2.90;2.17;;;20.80;56.80;;;;;;5039616;28;20804;-64
2023/11/03 00:21:39;;;;;;;3.85;2.55;;;20.80;56.80;;;;;;5040281;28;20025;-64
2023/11/03 00:24:05;;;;;;;3.83;2.30;;;20.80;56.80;;;;;;5039787;28;20087;-65
2023/11/03 00:26:31;;;;;;;3.60;2.10;;;20.80;56.80;;;;;;5041281;28;20116;-66
2023/11/03 00:28:56;;;;;;;3.53;2.25;;;20.80;56.80;;;;;;5040753;28;20115;-64
2023/11/03 00:31:22;;;;;;;4.40;2.45;;;20.80;56.80;;;;;;5041426;28;20037;-71
2023/11/03 00:33:48;;;;;;;3.53;2.40;;;20.80;56.80;;;;;;5039971;28;20025;-71
2023/11/03 00:36:16;;;;;;;3.50;2.20;;;20.80;56.90;;;;;;5069394;28;20472;-71
2023/11/03 00:38:43;;;;;;;3.75;2.40;;;20.80;56.90;;;;;;5040322;28;20025;-70
2023/11/03 00:41:09;;;;;;;4.25;2.25;;;20.80;56.90;;;;;;5039743;28;20535;-71
2023/11/03 00:43:35;;;;;;;4.57;2.35;;;20.80;56.90;;;;;;5039210;28;21200;-70
2023/11/03 00:46:03;;;;;;;3.97;2.58;;;20.70;56.90;;;;;;5039023;28;20092;-70
2023/11/03 00:48:28;;;;;;;4.20;2.20;;;20.80;56.90;;;;;;5039499;28;20029;-71
2023/11/03 00:50:54;;;;;;;3.83;2.25;;;20.70;56.90;;;;;;5039064;28;20033;-71
2023/11/03 00:53:19;;;;;;;3.50;2.08;;;20.70;56.90;;;;;;5038401;28;20029;-71
2023/11/03 00:55:45;;;;;;;3.60;2.35;;;20.70;56.90;;;;;;5039799;28;20025;-71
2023/11/03 00:58:10;;;;;;;3.33;2.25;;;20.70;56.90;;;;;;5040266;28;20025;-71
2023/11/03 01:00:40;;;;;;;3.30;2.00;;;20.70;56.90;;;;;;5038965;28;20393;-66
2023/11/03 01:03:07;;;;;;;3.70;2.20;;;20.70;56.90;;;;;;5039159;28;20409;-66
2023/11/03 01:05:33;;;;;;;4.35;2.47;;;20.70;56.90;;;;;;5040613;28;20021;-67
2023/11/03 01:08:00;;;;;;;3.22;2.00;;;20.70;56.90;;;;;;5038884;28;20475;-66
2023/11/03 01:10:28;;;;;;;3.38;2.00;;;20.70;56.90;;;;;;5042304;28;20207;-64
2023/11/03 01:12:54;;;;;;;3.70;2.10;;;20.70;56.90;;;;;;5038494;28;20022;-66
2023/11/03 01:15:20;;;;;;;3.05;1.98;;;20.70;56.90;;;;;;5038964;28;20022;-65
2023/11/03 01:17:50;;;;;;;3.28;2.10;;;20.60;56.90;;;;;;5038344;28;20029;-66
2023/11/03 01:20:19;;;;;;;4.03;2.05;;;20.60;56.90;;;;;;5041502;28;20028;-64
2023/11/03 01:22:48;;;;;;;3.10;1.95;;;20.60;56.90;;;;;;5040227;28;20025;-64
2023/11/03 01:25:15;;;;;;;3.20;1.95;;;20.60;56.90;;;;;;5037107;28;20025;-64
2023/11/03 01:27:43;;;;;;;3.50;2.33;;;20.60;56.90;;;;;;5038995;28;20061;-65
2023/11/03 01:30:13;;;;;;;3.30;2.30;;;20.60;56.90;;;;;;5040457;28;20522;-65
2023/11/03 01:32:38;;;;;;;3.60;2.10;;;20.60;56.90;;;;;;5038018;28;20032;-64
2023/11/03 01:35:06;;;;;;;3.30;2.00;;;20.60;56.90;;;;;;5037126;28;20536;-64
2023/11/03 01:37:33;;;;;;;3.80;2.33;;;20.60;56.90;;;;;;5040396;28;20465;-65
2023/11/03 01:39:59;;;;;;;3.80;2.40;;;20.60;56.90;;;;;;5038487;28;20032;-65
2023/11/03 01:42:25;;;;;;;2.95;1.90;;;20.60;56.90;;;;;;5042536;28;20021;-64
2023/11/03 01:44:51;;;;;;;3.75;2.30;;;20.60;56.90;;;;;;5039284;28;20049;-65
2023/11/03 01:47:17;;;;;;;3.38;1.90;;;20.50;56.90;;;;;;5038948;28;20028;-66
2023/11/03 01:49:44;;;;;;;2.95;1.80;;;20.60;57.00;;;;;;5041015;28;20036;-66
2023/11/03 01:52:11;;;;;;;4.35;2.05;;;20.50;56.90;;;;;;5038183;28;20481;-64
2023/11/03 01:54:37;;;;;;;3.05;2.00;;;20.50;57.00;;;;;;5037968;28;20029;-63
2023/11/03 01:57:03;;;;;;;3.30;2.05;;;20.50;57.00;;;;;;5036871;28;20124;-66
2023/11/03 01:59:29;;;;;;;3.42;2.10;;;20.50;57.00;;;;;;5037610;28;20448;-64
2023/11/03 02:01:56;;;;;;;3.13;2.10;;;20.50;57.00;;;;;;5039274;28;20021;-64
2023/11/03 02:04:21;;;;;;;3.05;1.98;;;20.50;57.00;;;;;;5036867;28;20082;-65
2023/11/03 02:06:47;;;;;;;3.30;2.20;;;20.50;57.00;;;;;;5038523;28;20033;-66
2023/11/03 02:09:13;;;;;;;3.05;1.90;;;20.50;57.00;;;;;;5036872;28;20087;-64
2023/11/03 02:11:43;;;;;;;3.22;2.10;;;20.50;57.50;;;;;;5037897;28;20032;-67
2023/11/03 02:14:09;;;;;;;3.22;2.08;;;20.50;57.00;;;;;;5038483;28;20079;-66
2023/11/03 02:16:35;;;;;;;3.30;1.90;;;20.50;57.00;;;;;;5040787;28;20021;-66
2023/11/03 02:19:04;;;;;;;3.65;1.98;;;20.50;57.00;;;;;;5045886;28;20383;-66
2023/11/03 02:21:41;;;;;;;2.80;1.83;;;20.50;57.00;;;;;;5045366;28;20028;-67
2023/11/03 02:24:08;;;;;;;3.00;2.08;;;20.50;57.00;;;;;;5044170;28;20036;-67
2023/11/03 02:26:34;;;;;;;2.80;1.70;;;20.50;57.10;;;;;;5046974;28;20108;-67
2023/11/03 02:29:01;;;;;;;3.13;1.90;;;20.40;57.00;;;;;;5043526;28;20028;-67
2023/11/03 02:31:26;;;;;;;3.20;2.10;;;20.40;57.00;;;;;;5045414;28;20485;-67
2023/11/03 02:33:53;;;;;;;3.80;2.00;;;20.40;57.00;;;;;;5044842;28;20030;-67
2023/11/03 02:36:19;;;;;;;3.65;2.20;;;20.40;57.00;;;;;;5044388;28;20025;-67
2023/11/03 02:38:45;;;;;;;2.53;1.92;;;20.40;57.00;;;;;;5043223;28;20013;-67
2023/11/03 02:41:10;;;;;;;2.65;2.00;;;20.40;57.00;;;;;;5044991;28;20452;-67
2023/11/03 02:43:36;;;;;;;3.28;2.00;;;20.40;57.00;;;;;;5043393;28;20083;-67
2023/11/03 02:46:04;;;;;;;2.80;2.00;;;20.40;57.00;;;;;;5045989;28;20056;-67
2023/11/03 02:48:29;;;;;;;2.63;1.80;;;20.40;57.00;;;;;;5044466;28;20030;-67
2023/11/03 02:50:55;;;;;;;2.70;1.70;;;20.40;57.00;;;;;;5047402;28;20092;-66
2023/11/03 02:53:21;;;;;;;3.10;1.83;;;20.40;57.00;;;;;;5043115;28;20103;-66
2023/11/03 02:55:46;;;;;;;3.22;1.90;;;20.40;57.00;;;;;;5046825;28;20342;-66
2023/11/03 02:58:12;;;;;;;2.88;1.60;;;20.40;57.00;;;;;;5045223;28;20021;-66
2023/11/03 03:00:44;;;;;;;2.45;1.60;;;20.40;57.00;;;;;;5042091;28;20107;-66
2023/11/03 03:03:10;;;;;;;2.50;1.73;;;20.40;57.10;;;;;;5044490;28;20029;-66
2023/11/03 03:05:36;;;;;;;2.42;1.70;;;20.40;57.00;;;;;;5047414;28;20029;-66
2023/11/03 03:08:05;;;;;;;3.45;2.00;;;20.40;57.00;;;;;;5045684;28;20495;-66
2023/11/03 03:10:31;;;;;;;2.92;1.85;;;20.40;57.10;;;;;;5043201;28;20083;-66
2023/11/03 03:12:57;;;;;;;2.67;1.83;;;20.30;57.00;;;;;;5046153;28;20344;-66
2023/11/03 03:15:23;;;;;;;2.85;1.70;;;20.30;57.00;;;;;;5045082;28;20109;-66
2023/11/03 03:17:49;;;;;;;2.70;1.67;;;20.30;57.00;;;;;;5043849;28;20049;-66
2023/11/03 03:20:15;;;;;;;3.25;2.03;;;20.30;57.00;;;;;;5046393;28;20374;-66
2023/11/03 03:22:41;;;;;;;3.63;1.67;;;20.30;57.00;;;;;;5043726;28;20033;-64
2023/11/03 03:25:08;;;;;;;2.47;1.60;;;20.30;57.10;;;;;;5041616;28;20035;-64
2023/11/03 03:27:34;;;;;;;2.83;1.83;;;20.30;57.10;;;;;;5044218;28;20474;-65
2023/11/03 03:30:00;;;;;;;2.50;1.75;;;20.30;57.10;;;;;;5040274;28;20044;-66
2023/11/03 03:32:25;;;;;;;2.10;1.50;;;20.30;57.00;;;;;;5040531;28;20036;-65
2023/11/03 03:34:51;;;;;;;2.55;1.60;;;20.30;57.10;;;;;;5043250;28;20052;-67
2023/11/03 03:37:17;;;;;;;2.35;1.50;;;20.30;57.10;;;;;;5041334;28;20072;-66
2023/11/03 03:39:43;;;;;;;2.60;1.70;;;20.30;57.10;;;;;;5039288;28;20033;-66
2023/11/03 03:42:09;;;;;;;2.22;1.58;;;20.30;57.10;;;;;;5041397;28;20025;-66
2023/11/03 03:44:41;;;;;;;2.90;2.00;;;20.30;57.10;;;;;;5041053;28;20036;-66
2023/11/03 03:47:08;;;;;;;2.83;1.95;;;20.30;57.10;;;;;;5043029;28;20148;-66
2023/11/03 03:49:35;;;;;;;2.53;1.60;;;20.30;57.10;;;;;;5040547;28;20184;-67
2023/11/03 03:52:00;;;;;;;2.70;1.60;;;20.20;57.00;;;;;;5042494;28;20080;-66
2023/11/03 03:54:26;;;;;;;2.30;1.60;;;20.20;57.10;;;;;;5040705;28;20053;-65
2023/11/03 03:56:52;;;;;;;2.72;1.60;;;20.20;57.10;;;;;;5042386;28;20034;-66
2023/11/03 03:59:17;;;;;;;2.15;1.50;;;20.20;57.10;;;;;;5039905;28;20074;-66
2023/11/03 04:01:43;;;;;;;2.65;1.67;;;20.20;57.00;;;;;;5040925;28;20079;-66
2023/11/03 04:04:09;;;;;;;2.65;1.60;;;20.20;57.10;;;;;;5041340;28;20028;-65
2023/11/03 04:06:34;;;;;;;2.47;1.63;;;20.20;57.10;;;;;;5043625;28;20021;-65
2023/11/03 04:09:00;;;;;;;2.63;1.50;;;20.20;57.10;;;;;;5042457;28;20024;-66
2023/11/03 04:11:26;;;;;;;2.25;1.60;;;20.20;57.10;;;;;;5038696;28;20385;-66
2023/11/03 04:13:52;;;;;;;2.60;1.80;;;20.20;57.10;;;;;;5040614;28;20431;-66
2023/11/03 04:16:17;;;;;;;2.67;1.80;;;20.20;57.10;;;;;;5042761;28;20040;-66
2023/11/03 04:18:43;;;;;;;2.20;1.50;;;20.20;57.10;;;;;;5039003;28;20021;-66
2023/11/03 04:21:09;;;;;;;2.60;1.45;;;20.20;57.10;;;;;;5040110;28;20029;-66
2023/11/03 04:23:35;;;;;;;2.35;1.52;;;20.20;57.10;;;;;;5039636;28;20398;-65
2023/11/03 04:26:01;;;;;;;2.20;1.40;;;20.20;57.10;;;;;;5040840;28;20029;-66
2023/11/03 04:28:27;;;;;;;2.40;1.33;;;20.20;57.20;;;;;;5039271;28;20021;-67
2023/11/03 04:30:52;;;;;;;2.72;1.58;;;20.20;57.10;;;;;;5040917;28;20551;-70
2023/11/03 04:33:18;;;;;;;2.38;1.50;;;20.10;57.10;;;;;;5040060;28;20127;-70
2023/11/03 04:35:43;;;;;;;2.42;1.50;;;20.20;57.10;;;;;;5039249;28;20052;-70
2023/11/03 04:38:09;;;;;;;2.47;1.50;;;20.10;57.10;;;;;;5040281;28;20083;-70
2023/11/03 04:40:35;;;;;;;2.55;1.65;;;20.10;57.10;;;;;;5038931;28;20021;-66
2023/11/03 04:43:01;;;;;;;2.13;1.42;;;20.10;57.10;;;;;;5040359;28;20033;-65
2023/11/03 04:45:27;;;;;;;2.50;1.50;;;20.10;57.10;;;;;;5042070;28;20668;-66
2023/11/03 04:47:53;;;;;;;2.60;1.55;;;20.10;57.10;;;;;;5037737;28;20033;-66
2023/11/03 04:50:19;;;;;;;2.47;1.60;;;20.10;57.60;;;;;;5040143;28;20029;-66
2023/11/03 04:52:44;;;;;;;2.75;1.60;;;20.10;57.10;;;;;;5038630;28;20029;-66
2023/11/03 04:55:10;;;;;;;1.67;1.23;;;20.10;57.20;;;;;;5038373;28;20473;-66
2023/11/03 04:57:36;;;;;;;2.30;1.40;;;20.10;57.20;;;;;;5040807;28;20017;-67
2023/11/03 05:00:04;;;;;;;2.40;1.50;;;20.10;57.20;;;;;;5040793;28;20392;-65
2023/11/03 05:02:29;;;;;;;2.58;1.48;;;20.10;57.20;;;;;;5042824;28;20093;-66
2023/11/03 05:04:56;;;;;;;2.50;1.48;;;20.10;57.20;;;;;;5040399;28;20786;-66
2023/11/03 05:07:22;;;;;;;2.13;1.40;;;20.10;57.20;;;;;;5039493;28;20412;-66
2023/11/03 05:09:48;;;;;;;2.38;1.40;;;20.10;57.20;;;;;;5036555;28;20539;-66
2023/11/03 05:12:14;;;;;;;1.80;1.30;;;20.10;57.20;;;;;;5037602;28;20025;-67
2023/11/03 05:14:39;;;;;;;2.25;1.42;;;20.00;57.20;;;;;;5039572;28;20680;-67
2023/11/03 05:17:07;;;;;;;2.17;1.40;;;20.00;57.20;;;;;;5040508;28;20021;-67
2023/11/03 05:19:35;;;;;;;2.42;1.45;;;20.00;57.20;;;;;;5040346;28;20045;-67
2023/11/03 05:22:01;;;;;;;2.08;1.30;;;20.00;57.20;;;;;;5038995;28;20256;-67
2023/11/03 05:24:27;;;;;;;1.80;1.30;;;20.00;57.20;;;;;;5040525;28;20078;-68
2023/11/03 05:26:53;;;;;;;1.90;1.30;;;20.00;57.20;;;;;;5035801;28;20028;-68
2023/11/03 05:29:22;;;;;;;2.03;1.30;;;20.00;57.20;;;;;;5038677;28;20056;-67
2023/11/03 05:31:49;;;;;;;2.22;1.38;;;20.00;57.20;;;;;;5039044;28;20059;-67
2023/11/03 05:34:15;;;;;;;2.50;1.60;;;20.00;57.20;;;;;;5038423;28;20026;-67
2023/11/03 05:36:40;;;;;;;2.67;1.50;;;20.00;57.20;;;;;;5037394;28;20107;-67
2023/11/03 05:39:08;;;;;;;2.10;1.35;;;20.00;57.30;;;;;;5038407;28;20036;-67
2023/11/03 05:41:34;;;;;;;1.92;1.30;;;20.00;57.30;;;;;;5035777;28;20532;-66
2023/11/03 05:43:59;;;;;;;2.42;1.20;;;20.00;57.30;;;;;;5041070;28;20120;-66
2023/11/03 05:46:25;;;;;;;2.35;1.45;;;20.00;57.30;;;;;;5037515;28;20067;-65
2023/11/03 05:48:52;;;;;;;2.00;1.35;;;20.00;57.30;;;;;;5037670;28;20033;-66
2023/11/03 05:51:21;;;;;;;1.80;1.17;;;20.00;57.30;;;;;;5036834;28;20086;-71
2023/11/03 05:53:50;;;;;;;2.17;1.30;;;20.00;57.30;;;;;;5036346;28;20367;-71
2023/11/03 05:56:16;;;;;;;1.90;1.13;;;20.00;57.30;;;;;;5036491;28;20043;-70
2023/11/03 05:58:41;;;;;;;2.28;1.38;;;20.00;57.30;;;;;;5037065;28;20112;-70
2023/11/03 06:01:08;;;;;;;2.30;1.30;;;19.90;57.30;;;;;;5038496;28;20021;-70
2023/11/03 06:03:36;;;;;;;1.88;1.10;;;19.90;57.30;;;;;;5039268;28;20544;-70
2023/11/03 06:06:06;;;;;;;1.63;1.10;;;20.00;57.30;;;;;;5040367;28;20056;-70
2023/11/03 06:08:32;;;;;;;;;;;19.90;57.30;;;;;;5037760;28;20029;-70
2023/11/03 06:10:57;;;;;;;1.83;1.15;;;19.90;57.30;;;;;;5038298;28;20388;-70
2023/11/03 06:13:23;;;;;;;1.60;1.10;;;19.90;57.30;;;;;;5038325;28;20493;-70
2023/11/03 06:15:48;;;;;;;1.70;1.10;;;20.00;57.40;;;;;;5038121;28;20485;-70
2023/11/03 06:18:14;;;;;;;2.60;1.30;;;20.00;57.40;;;;;;5039209;28;20497;-68
2023/11/03 06:20:40;;;;;;;2.00;1.20;;;19.90;57.30;;;;;;5039417;28;20044;-70
2023/11/03 06:23:05;;;;;;;1.70;1.15;;;19.90;57.30;;;;;;5039157;28;20068;-70
2023/11/03 06:25:31;;;;;;;1.50;1.10;;;19.90;57.40;;;;;;5037164;28;20037;-70
2023/11/03 06:27:56;;;;;;;2.10;1.20;;;19.90;57.40;;;;;;5039623;28;20079;-70
2023/11/03 06:30:22;;;;;;;2.30;1.30;;;19.90;57.40;;;;;;5040418;28;20361;-70
2023/11/03 06:32:48;;;;;;;1.85;1.20;;;19.90;57.40;;;;;;5038733;28;20026;-70
2023/11/03 06:35:14;;;;;;;1.38;1.08;;;19.90;57.40;;;;;;5038324;28;20330;-70
2023/11/03 06:37:40;;;;;;;2.05;1.20;;;19.90;57.90;;;;;;5037147;28;20134;-70
2023/11/03 06:40:10;;;;;;;1.55;1.08;;;19.90;57.40;;;;;;5037932;28;20487;-70
2023/11/03 06:42:38;;;;;;;1.88;1.25;;;19.90;57.40;;;;;;5036717;28;20107;-70
2023/11/03 06:45:06;;;;;;;1.23;0.85;;;19.90;57.40;;;;;;5036284;28;20028;-70
2023/11/03 06:47:32;;;;;;;1.60;1.10;;;19.90;57.40;;;;;;5038442;28;20029;-70
2023/11/03 06:49:57;;;;;;;1.75;1.20;;;19.90;57.40;;;;;;5039022;28;20025;-70
2023/11/03 06:52:23;;;;;;;1.85;1.20;;;19.90;57.40;;;;;;5037946;28;20141;-66
2023/11/03 06:54:49;;;;;;;1.77;1.20;;;19.90;57.40;;;;;;5038574;28;20064;-66
2023/11/03 06:57:16;;;;;;;2.20;1.25;;;19.90;57.40;;;;;;5036815;28;20175;-66
2023/11/03 06:59:41;;;;;;;2.30;1.40;;;19.90;57.50;;;;;;5038600;28;20026;-66
2023/11/03 07:02:08;;;;;;;1.25;0.98;;;19.90;57.50;;;;;;5038942;28;20022;-65
2023/11/03 07:04:35;;;;;;;1.63;1.10;;;19.90;57.40;;;;;;5040294;28;20516;-65
2023/11/03 07:07:01;;;;;;;1.60;1.20;;;19.90;57.50;;;;;;5041996;28;20052;-65
2023/11/03 07:09:27;;;;;;;1.90;1.30;;;19.90;57.50;;;;;;5044361;28;20052;-64
2023/11/03 07:11:54;;;;;;;1.60;1.13;;;19.90;57.40;;;;;;5039851;28;20593;-65
2023/11/03 07:14:20;;;;;;;1.42;1.00;;;19.90;57.50;;;;;;5042893;28;20025;-64
2023/11/03 07:16:47;;;;;;;1.52;1.00;;;19.90;57.50;;;;;;5042400;28;20025;-65
2023/11/03 07:19:13;;;;;;;1.77;1.08;;;19.80;57.40;;;;;;5040256;28;20049;-64
2023/11/03 07:21:39;;;;;;;1.98;1.10;;;19.90;57.50;;;;;;5039787;28;20057;-64
2023/11/03 07:24:05;;;;;;;1.63;1.13;;;19.80;57.40;;;;;;5042499;28;20130;-65
2023/11/03 07:26:31;;;;;;;1.58;1.10;;;19.90;57.50;;;;;;5038310;28;20389;-64
2023/11/03 07:28:57;;;;;;;1.30;0.98;;;19.80;57.50;;;;;;5042614;28;20040;-66
2023/11/03 07:31:22;;;;;;;1.40;1.00;;;19.90;57.50;;;;;;5041127;28;20478;-66
2023/11/03 07:33:49;;;;;;;1.45;1.00;;;19.90;57.60;;;;;;5039783;28;20480;-65
2023/11/03 07:36:15;;;;;;;1.90;1.15;;;19.80;57.50;;;;;;5040539;28;20135;-64
2023/11/03 07:38:40;;;;;;;1.83;1.10;;;19.80;57.50;;;;;;5042951;28;20197;-66
2023/11/03 07:41:09;;;;;;;1.80;1.20;;;19.80;57.50;;;;;;5039035;28;20029;-65
2023/11/03 07:43:38;;;;;;;1.70;0.95;;;19.80;57.50;;;;;;5042789;28;20029;-67
2023/11/03 07:46:04;;;;;;;1.83;1.20;;;19.80;57.50;;;;;;5039647;28;20473;-66
2023/11/03 07:48:30;;;;;;;1.67;1.20;;;19.80;57.50;;;;;;5041550;28;20035;-65
2023/11/03 07:50:55;;;;;;;1.67;1.20;;;19.80;57.50;;;;;;5042786;28;20033;-65
2023/11/03 07:53:21;;;;;;;2.10;1.30;;;19.80;57.50;;;;;;5042549;28;20041;-65
2023/11/03 07:55:48;;;;;;;1.90;1.20;;;19.80;57.50;;;;;;5040958;28;20427;-67
2023/11/03 07:58:13;;;;;;;1.70;1.15;;;19.90;57.60;;;;;;5041046;28;20065;-65
2023/11/03 08:00:39;;;;;;;1.90;1.20;;;19.80;57.50;;;;;;5039969;28;20056;-69
2023/11/03 08:03:07;;;;;;;1.88;1.15;;;19.80;57.50;;;;;;5042405;28;20029;-68
2023/11/03 08:05:34;;;;;;;1.35;1.00;;;19.80;57.50;;;;;;5039554;28;20030;-68
2023/11/03 08:08:01;;;;;;;1.35;1.00;;;19.80;57.50;;;;;;5038556;28;20030;-68
2023/11/03 08:10:27;;;;;;;1.70;1.10;;;19.80;57.50;;;;;;5040011;28;20024;-67
2023/11/03 08:12:57;;;;;;;2.00;1.30;;;19.80;57.50;;;;;;5040391;28;20127;-67
2023/11/03 08:15:23;;;;;;;1.65;1.00;;;19.80;57.50;;;;;;5037543;28;20495;-68
2023/11/03 08:17:49;;;;;;;2.65;1.30;;;19.80;57.50;;;;;;5041428;28;20477;-68
2023/11/03 08:20:15;;;;;;;1.73;1.10;;;19.80;57.50;;;;;;5041537;28;20507;-67
2023/11/03 08:22:44;;;;;;;1.70;1.20;;;19.80;57.50;;;;;;5041507;28;20382;-67
2023/11/03 08:25:11;;;;;;;2.17;1.30;;;19.80;57.50;;;;;;5039444;28;20021;-67
2023/11/03 08:27:37;;;;;;;1.75;1.10;;;19.80;57.60;;;;;;5038213;28;20121;-68
2023/11/03 08:30:06;;;;;;;2.55;1.25;;;19.80;57.50;;;;;;5039235;28;20104;-67
2023/11/03 08:32:31;;;;;;;1.23;1.00;;;19.80;57.60;;;;;;5042079;28;20346;-68
2023/11/03 08:34:57;;;;;;;1.42;1.00;;;19.80;57.60;;;;;;5039649;28;20040;-67
2023/11/03 08:37:23;;;;;;;1.50;1.00;;;19.80;57.60;;;;;;5038910;28;20349;-67
2023/11/03 08:39:51;;;;;;;1.98;1.00;;;19.80;57.60;;;;;;5040027;28;20026;-67
2023/11/03 08:42:16;;;;;;;1.83;1.20;;;19.70;57.50;;;;;;5037899;28;20727;-66
2023/11/03 08:44:43;;;;;;;2.05;1.20;;;19.70;57.50;;;;;;5041177;28;20116;-65
2023/11/03 08:47:08;;;;;;;1.65;1.30;;;19.80;57.60;;;;;;5042645;28;20108;-66
2023/11/03 08:49:35;;;;;;;2.15;1.25;;;19.70;57.50;;;;;;5039093;28;20107;-65
2023/11/03 08:52:00;;;;;;;2.17;1.10;;;19.80;57.60;;;;;;5042624;28;20434;-68
2023/11/03 08:54:26;;;;;;;1.98;1.20;;;19.80;57.60;;;;;;5039668;28;20057;-65
2023/11/03 08:56:53;;;;;;;1.88;1.30;;;19.70;57.60;;;;;;5038779;28;20018;-65
2023/11/03 08:59:19;;;;;;;1.73;1.20;;;19.70;57.60;;;;;;5039362;28;20025;-65
2023/11/03 09:01:45;;;;;;;1.83;1.20;;;19.70;57.60;;;;;;5040905;28;20436;-65
2023/11/03 09:04:11;;;;;;;1.52;1.13;;;19.70;57.60;;;;;;5040391;28;20401;-65
2023/11/03 09:06:37;;;;;;;1.60;1.15;;;19.70;57.60;;;;;;5038860;28;20425;-66
2023/11/03 09:09:03;;;;;;;1.80;1.13;;;19.70;57.60;;;;;;5039404;28;20330;-65
2023/11/03 09:11:30;;;;;;;2.10;1.40;;;19.70;57.60;;;;;;5038047;28;20492;-69
2023/11/03 09:13:58;;;;;;;1.92;1.17;;;19.70;57.60;;;;;;5040874;28;20021;-69
2023/11/03 09:16:24;;;;;;;1.80;1.10;;;19.70;57.60;;;;;;5039685;28;20029;-69
2023/11/03 09:18:54;;;;;;;1.83;1.27;;;19.70;57.60;;;;;;5040566;28;20470;-69
2023/11/03 09:21:20;;;;;;;2.47;1.33;;;19.70;58.20;;;;;;5039408;28;20116;-72
2023/11/03 09:23:47;;;;;;;2.45;1.45;;;19.70;58.00;;;;;;5041355;28;20112;-72
2023/11/03 09:26:13;;;;;;;1.98;1.40;;;19.70;58.10;;;;;;5038169;28;20038;-73
2023/11/03 09:28:38;;;;;;;1.90;1.35;;;19.70;58.10;;;;;;5039581;28;20035;-72
2023/11/03 09:31:05;;;;;;;1.52;1.10;;;19.70;58.30;;;;;;5040971;28;20029;-70
2023/11/03 09:33:31;;;;;;;2.65;1.40;;;19.70;58.30;;;;;;5038621;28;20033;-72
2023/11/03 09:35:57;;;;;;;1.95;1.17;;;19.70;58.40;;;;;;5039554;28;20028;-72
2023/11/03 09:38:22;;;;;;;1.90;1.15;;;19.70;58.30;;;;;;5040035;28;20473;-73
2023/11/03 09:40:52;;;;;;;1.73;1.20;;;19.80;58.40;;;;;;5038922;28;20030;-73
2023/11/03 09:43:19;;;;;;;1.95;1.23;;;19.80;58.40;;;;;;5037166;28;20044;-73
2023/11/03 09:45:46;;;;;;;2.60;1.42;;;19.70;58.40;;;;;;5036557;28;20468;-73
2023/11/03 09:48:12;;;;;;;1.70;1.05;;;19.80;58.50;;;;;;5040125;28;20029;-73
2023/11/03 09:50:40;;;;;;;1.90;1.30;;;19.80;58.50;;;;;;5040774;28;20493;-67
2023/11/03 09:53:15;;;;;;;2.17;1.30;;;19.80;58.30;;;;;;5039241;28;20484;-65
2023/11/03 09:55:41;;;;;;;1.98;1.13;;;19.80;58.70;;;;;;5037771;28;20052;-67
2023/11/03 09:58:07;;;;;;;2.10;1.40;;;19.80;58.30;;;;;;5036910;28;20480;-65
2023/11/03 10:00:33;;;;;;;2.13;1.30;;;19.80;58.30;;;;;;5038225;28;20079;-65
2023/11/03 10:03:00;;;;;;;2.38;1.42;;;19.80;58.20;;;;;;5039315;28;20029;-66
2023/11/03 10:05:30;;;;;;;2.35;1.45;;;19.80;58.10;;;;;;5038878;28;20044;-64
2023/11/03 10:08:07;;;;;;;2.40;1.48;;;19.80;58.10;;;;;;5041231;28;20044;-67
2023/11/03 10:10:39;;;;;;;2.17;1.40;;;19.80;58.10;;;;;;5039483;28;20021;-66
2023/11/03 10:13:09;;;;;;;2.13;1.42;;;19.80;58.50;;;;;;5037039;28;20036;-67
2023/11/03 10:15:44;;;;;;;3.25;1.35;;;19.80;58.40;;;;;;5038507;28;20129;-66
2023/11/03 10:18:10;;;;;;;1.98;1.40;;;19.80;58.50;;;;;;5039823;28;20017;-66
2023/11/03 10:20:38;;;;;;;2.28;1.50;;;19.80;58.70;;;;;;5039004;28;20469;-68
2023/11/03 10:23:04;;;;;;;2.53;1.58;;;19.80;59.20;;;;;;5040457;28;20338;-67
2023/11/03 10:25:31;;;;;;;2.40;1.52;;;19.80;58.60;;;;;;5038468;28;20112;-66
2023/11/03 10:27:59;;;;;;;2.42;1.70;;;19.90;59.20;;;;;;5038272;28;20488;-68
2023/11/03 10:30:29;;;;;;;2.20;1.50;;;19.80;58.90;;;;;;5039056;28;20037;-65
2023/11/03 10:32:54;;;;;;;2.17;1.45;;;19.90;59.00;;;;;;5041492;28;20025;-66
2023/11/03 10:35:21;;;;;;;2.80;1.65;;;19.90;59.30;;;;;;5037117;28;20156;-64
2023/11/03 10:37:49;;;;;;;2.42;1.52;;;19.80;59.30;;;;;;5037902;28;20394;-65
2023/11/03 10:40:15;;;;;;;2.40;1.50;;;19.90;59.40;;;;;;5042334;28;20838;-66
2023/11/03 10:42:51;;;;;;;4.90;1.75;;;19.90;59.30;;;;;;5040971;28;20029;-66
2023/11/03 10:45:20;;;;;;;2.47;1.60;;;19.90;59.20;;;;;;5040044;28;20448;-66
2023/11/03 10:48:03;;;;;;;3.63;1.95;;;20.00;59.20;;;;;;5040221;28;20477;-66
2023/11/03 10:50:35;;;;;;;2.78;1.52;;;19.90;59.40;;;;;;5040909;28;20501;-65
2023/11/03 10:53:09;;;;;;;3.22;1.70;;;20.00;59.50;;;;;;5040752;28;20033;-66
2023/11/03 10:55:44;;;;;;;2.50;1.50;;;19.90;59.10;;;;;;5041799;28;20485;-67
2023/11/03 10:58:11;;;;;;;2.28;1.42;;;20.00;59.70;;;;;;5039820;28;20503;-65
2023/11/03 11:00:56;;;;;;;2.58;1.50;;;20.00;59.30;;;;;;5041810;28;20021;-68
2023/11/03 11:03:27;;;;;;;3.80;1.70;;;20.00;59.40;;;;;;5044144;28;20029;-68
2023/11/03 11:06:05;;;;;;;2.60;1.38;;;20.00;59.10;;;;;;5044399;28;20512;-68
2023/11/03 11:08:33;;;;;;;3.78;1.40;;;20.00;59.00;;;;;;5074326;28;20538;-68
2023/11/03 11:11:02;;;;;;;2.72;1.52;;;20.00;59.20;;;;;;5042868;28;20036;-67
2023/11/03 11:13:28;;;;;;;2.17;1.45;;;20.00;58.80;;;;;;5039832;28;20025;-67
2023/11/03 11:15:56;;;;;;;2.53;1.63;;;20.00;59.20;;;;;;5041005;28;20032;-68
2023/11/03 11:18:28;;;;;;;2.42;1.40;;;20.00;59.10;;;;;;5042759;28;20033;-68
2023/11/03 11:21:01;;;;;;;2.38;1.40;;;20.00;59.00;;;;;;5041384;28;20426;-67
2023/11/03 11:23:35;;;;;;;2.03;1.40;;;20.00;58.90;;;;;;5043092;28;20025;-68
2023/11/03 11:26:02;;;;;;;3.72;1.67;;;20.00;58.80;;;;;;5043946;28;20029;-67
2023/11/03 11:28:39;;;;;;;2.78;1.60;;;20.00;59.20;;;;;;5041004;28;20017;-67
2023/11/03 11:31:25;;;;;;;2.83;1.90;;;20.00;58.90;;;;;;5040218;28;20032;-73
2023/11/03 11:34:07;;;;;;;2.92;1.70;;;20.10;59.40;;;;;;5041185;28;20555;-74
2023/11/03 11:36:34;;;;;;;2.90;1.70;;;20.10;59.40;;;;;;5042612;28;20978;-72
2023/11/03 11:39:16;;;;;;;2.78;1.58;;;20.10;59.20;;;;;;5048532;28;20098;-73
2023/11/03 11:41:59;;;;;;;2.50;1.55;;;20.10;58.80;;;;;;5040417;28;20049;-65
2023/11/03 11:44:27;;;;;;;2.40;1.52;;;20.10;59.10;;;;;;5042261;28;20555;-65
2023/11/03 11:47:00;;;;;;;2.50;1.55;;;20.10;58.90;;;;;;5041452;28;20040;-64
2023/11/03 11:49:30;;;;;;;2.60;1.58;;;20.10;59.10;;;;;;5041071;28;20043;-65
2023/11/03 11:52:01;;;;;;;2.50;1.70;;;20.10;58.80;;;;;;5042018;28;20412;-65
2023/11/03 11:54:27;;;;;;;2.47;1.75;;;20.10;58.90;;;;;;5049106;28;20096;-65
2023/11/03 11:56:53;;;;;;;3.33;1.60;;;20.10;59.00;;;;;;5039956;28;20025;-66
2023/11/03 11:59:21;;;;;;;2.70;1.77;;;20.10;58.70;;;;;;5040158;28;20383;-66
2023/11/03 12:01:48;;;;;;;2.42;1.50;;;20.10;58.70;;;;;;5039493;28;20103;-65
2023/11/03 12:04:14;;;;;;;3.25;1.52;;;20.10;58.70;;;;;;5042789;28;20465;-66
2023/11/03 12:06:41;;;;;;;2.90;1.55;;;20.10;58.80;;;;;;5041067;28;20096;-68
2023/11/03 12:09:08;;;;;;;2.33;1.60;;;20.10;58.60;;;;;;5041641;28;20033;-66
2023/11/03 12:11:33;;;;;;;2.78;1.55;;;20.10;58.90;;;;;;5040049;28;20024;-66
2023/11/03 12:14:02;;;;;;;2.97;1.80;;;20.10;58.70;;;;;;5038656;28;20028;-65
2023/11/03 12:16:27;;;;;;;2.05;1.40;;;20.20;58.90;;;;;;5041854;28;20022;-65
2023/11/03 12:18:56;;;;;;;2.38;1.60;;;20.20;58.70;;;;;;5039894;28;20033;-65
2023/11/03 12:21:25;;;;;;;3.45;1.73;;;20.20;59.00;;;;;;5041709;28;20114;-71
2023/11/03 12:23:55;;;;;;;2.83;1.58;;;20.20;59.00;;;;;;5042290;28;20496;-72
2023/11/03 12:26:20;;;;;;;3.60;1.55;;;20.20;58.70;;;;;;5043252;28;20404;-72
2023/11/03 12:28:46;;;;;;;2.30;1.60;;;20.20;58.70;;;;;;5039768;28;20029;-72
2023/11/03 12:31:12;;;;;;;3.22;1.60;;;20.20;59.00;;;;;;5040232;28;20104;-73
2023/11/03 12:33:38;;;;;;;2.42;1.60;;;20.20;58.90;;;;;;5040000;28;20195;-74
2023/11/03 12:36:07;;;;;;;2.85;1.63;;;20.20;58.70;;;;;;5042002;28;20032;-73
2023/11/03 12:38:46;;;;;;;2.10;1.40;;;20.20;58.60;;;;;;5041552;28;20021;-72
2023/11/03 12:41:19;;;;;;;3.30;1.67;;;20.20;58.90;;;;;;5041671;28;20037;-67
2023/11/03 12:43:47;;;;;;;2.70;1.65;;;20.30;58.90;;;;;;5040314;28;20025;-68
2023/11/03 12:46:13;;;;;;;2.60;1.60;;;20.30;58.60;;;;;;5040923;28;20485;-67
2023/11/03 12:48:40;;;;;;;2.72;1.60;;;20.30;58.40;;;;;;5037448;28;20274;-67